Time;durP1;ratioP1;P1;durP2;ratioP2;P2;SDS_P1;SDS_P2;PMS_P1;PMS_P2;Temp;Humidity;BMP_temperature;BMP_pressure;BME280_temperature;BME280_humidity;BME280_pressure;Samples;Min_cycle;Max_cycle;Signal;HPM_P1;HPM_P2
2022/12/14 00:00:41;;;;;;;21.63;10.00;;;;;;;-3.32;96.70;100449.69;5019747;28;20089;-69
2022/12/14 00:03:07;;;;;;;21.75;11.38;;;;;;;-3.30;96.05;100460.03;5020881;28;20029;-69
2022/12/14 00:05:34;;;;;;;21.27;9.13;;;;;;;-3.27;96.26;100459.78;5020972;28;20042;-69
2022/12/14 00:08:00;;;;;;;22.75;11.13;;;;;;;-3.27;95.49;100458.97;5015177;28;20113;-69
2022/12/14 00:10:26;;;;;;;23.60;11.10;;;;;;;-3.26;95.44;100452.78;5016221;28;20112;-69
2022/12/14 00:12:51;;;;;;;17.88;10.10;;;;;;;-3.24;95.52;100443.06;5002337;28;20030;-69
2022/12/14 00:15:17;;;;;;;21.35;8.82;;;;;;;-3.24;95.02;100432.63;5019863;28;20064;-69
2022/12/14 00:17:42;;;;;;;22.73;10.63;;;;;;;-3.23;95.33;100431.69;5021625;28;20041;-70
2022/12/14 00:20:08;;;;;;;19.27;9.77;;;;;;;-3.24;94.32;100420.44;5020594;28;20034;-69
2022/12/14 00:22:33;;;;;;;21.63;10.45;;;;;;;-3.24;94.70;100423.03;5023035;28;20094;-69
2022/12/14 00:24:59;;;;;;;22.25;9.05;;;;;;;-3.25;94.79;100418.75;5020321;28;20056;-69
2022/12/14 00:27:25;;;;;;;20.52;9.15;;;;;;;-3.24;94.31;100423.03;5010188;28;20069;-69
2022/12/14 00:29:51;;;;;;;23.77;10.75;;;;;;;-3.26;94.10;100424.94;5023632;28;20037;-69
2022/12/14 00:32:17;;;;;;;22.80;9.23;;;;;;;-3.23;94.01;100429.91;5002501;28;20489;-69
2022/12/14 00:34:42;;;;;;;21.33;10.27;;;;;;;-3.25;93.97;100418.75;4999218;28;20033;-70
2022/12/14 00:37:08;;;;;;;19.83;10.63;;;;;;;-3.25;94.03;100426.56;5010345;28;20112;-70
2022/12/14 00:39:33;;;;;;;20.60;9.57;;;;;;;-3.28;93.91;100420.78;5010325;28;20030;-69
2022/12/14 00:41:58;;;;;;;24.10;9.48;;;;;;;-3.28;94.00;100426.00;5010202;28;20424;-69
2022/12/14 00:44:24;;;;;;;20.73;10.88;;;;;;;-3.31;94.32;100414.00;5009593;28;20061;-69
2022/12/14 00:46:49;;;;;;;25.90;10.32;;;;;;;-3.35;94.39;100410.81;5018997;28;20026;-69
2022/12/14 00:49:14;;;;;;;26.15;10.38;;;;;;;-3.34;93.71;100407.25;5018334;28;20033;-69
2022/12/14 00:51:40;;;;;;;19.95;10.73;;;;;;;-3.36;93.94;100403.94;5020349;28;20033;-69
2022/12/14 00:54:05;;;;;;;22.80;10.57;;;;;;;-3.38;94.46;100394.56;5021470;28;20041;-69
2022/12/14 00:56:31;;;;;;;21.02;9.40;;;;;;;-3.45;94.62;100383.81;5019486;28;20124;-69
2022/12/14 00:58:56;;;;;;;20.45;10.43;;;;;;;-3.44;94.61;100379.41;5016908;28;20090;-69
2022/12/14 01:01:21;;;;;;;21.58;9.57;;;;;;;-3.48;94.72;100376.22;5019588;28;20068;-69
2022/12/14 01:03:48;;;;;;;18.13;8.90;;;;;;;-3.49;94.62;100381.53;5013152;28;20046;-69
2022/12/14 01:06:20;;;;;;;20.38;8.82;;;;;;;-3.52;95.17;100375.59;5013127;28;20030;-69
2022/12/14 01:08:46;;;;;;;23.00;10.57;;;;;;;-3.55;94.99;100369.81;5013570;28;20041;-69
2022/12/14 01:11:12;;;;;;;20.33;9.88;;;;;;;-3.60;94.45;100364.13;5022603;28;20021;-69
2022/12/14 01:13:38;;;;;;;22.33;9.57;;;;;;;-3.58;94.96;100370.88;5024415;28;20485;-69
2022/12/14 01:16:12;;;;;;;23.23;12.43;;;;;;;-3.60;94.49;100364.94;5019285;28;20033;-69
2022/12/14 01:18:39;;;;;;;23.35;10.43;;;;;;;-3.61;94.93;100359.88;5020689;28;20096;-69
2022/12/14 01:21:18;;;;;;;27.70;11.82;;;;;;;-3.62;95.34;100360.78;5033247;28;20029;-69
2022/12/14 01:23:45;;;;;;;20.45;8.57;;;;;;;-3.63;95.18;100359.16;5033203;28;20041;-69
2022/12/14 01:26:12;;;;;;;20.35;8.63;;;;;;;-3.64;94.93;100360.94;5043980;28;20045;-69
2022/12/14 01:28:38;;;;;;;23.20;10.98;;;;;;;-3.64;95.40;100354.88;5063061;28;20476;-69
2022/12/14 01:31:06;;;;;;;20.63;9.88;;;;;;;-3.65;95.44;100348.00;5062827;28;20040;-69
2022/12/14 01:33:31;;;;;;;24.92;10.05;;;;;;;-3.64;95.54;100347.91;5043557;28;20068;-69
2022/12/14 01:35:56;;;;;;;24.55;11.77;;;;;;;-3.66;95.64;100348.97;5054930;28;20061;-65
2022/12/14 01:38:22;;;;;;;26.73;9.75;;;;;;;-3.66;95.93;100344.56;5052626;28;20028;-65
2022/12/14 01:40:47;;;;;;;22.05;10.32;;;;;;;-3.66;95.98;100344.56;5052966;28;20032;-65
2022/12/14 01:43:13;;;;;;;21.92;10.00;;;;;;;-3.66;95.21;100341.97;5052816;28;20021;-65
2022/12/14 01:45:40;;;;;;;20.27;9.02;;;;;;;-3.66;95.50;100352.41;5052808;28;20033;-65
2022/12/14 01:48:11;;;;;;;18.10;9.73;;;;;;;-3.65;95.23;100351.44;5052851;28;20033;-66
2022/12/14 01:50:41;;;;;;;21.30;10.10;;;;;;;-3.69;95.34;100347.44;5052696;28;20531;-65
2022/12/14 01:53:12;;;;;;;32.17;10.07;;;;;;;-3.68;95.61;100356.06;5052535;28;20040;-66
2022/12/14 01:55:42;;;;;;;24.00;11.35;;;;;;;-3.67;95.27;100349.91;5052624;28;20079;-65
2022/12/14 01:58:17;;;;;;;21.88;8.90;;;;;;;-3.68;95.47;100346.47;5052613;28;20020;-65
2022/12/14 02:00:43;;;;;;;20.83;10.18;;;;;;;-3.70;95.63;100337.09;5052608;28;20115;-66
2022/12/14 02:03:13;;;;;;;20.17;8.93;;;;;;;-3.72;95.43;100331.19;5034469;28;20158;-65
2022/12/14 02:05:45;;;;;;;17.95;9.38;;;;;;;-3.73;94.97;100332.97;5057182;28;20078;-65
2022/12/14 02:08:12;;;;;;;19.90;9.25;;;;;;;-3.70;94.88;100337.09;5069448;28;20082;-65
2022/12/14 02:10:37;;;;;;;23.50;10.90;;;;;;;-3.70;95.05;100350.97;5071587;28;20029;-65
2022/12/14 02:13:13;;;;;;;18.77;10.38;;;;;;;-3.71;95.14;100332.84;5071386;28;20024;-65
2022/12/14 02:15:39;;;;;;;20.83;10.02;;;;;;;-3.75;95.69;100332.25;5071431;28;20379;-65
2022/12/14 02:18:09;;;;;;;21.70;8.93;;;;;;;-3.72;95.84;100328.56;5071413;28;20892;-65
2022/12/14 02:21:00;;;;;;;20.42;9.80;;;;;;;-3.73;95.64;100319.09;5071261;28;20110;-66
2022/12/14 02:24:02;;;;;;;22.30;10.75;;;;;;;-3.73;95.69;100319.94;5020711;28;20048;-66
2022/12/14 02:26:33;;;;;;;;;;;;;;;-3.71;96.79;100319.81;5071412;28;20517;-66
2022/12/14 02:29:22;;;;;;;22.05;9.88;;;;;;;-3.72;95.64;100319.00;5071255;28;20828;-65
2022/12/14 02:32:03;;;;;;;21.75;10.63;;;;;;;-3.73;95.46;100319.94;5071021;28;20043;-65
2022/12/14 02:34:58;;;;;;;17.73;8.70;;;;;;;-3.72;94.80;100310.34;5070980;28;20028;-65
2022/12/14 02:37:49;;;;;;;23.38;11.23;;;;;;;-3.72;94.78;100307.72;5034965;28;20093;-65
2022/12/14 02:40:27;;;;;;;21.57;10.93;;;;;;;-3.71;94.87;100309.41;5071038;28;20024;-66
2022/12/14 02:43:21;;;;;;;24.35;11.13;;;;;;;-3.76;94.87;100302.75;5070759;28;20368;-65
2022/12/14 02:45:59;;;;;;;22.15;8.45;;;;;;;-3.83;94.48;100295.53;5051462;28;20072;-66
2022/12/14 02:48:30;;;;;;;20.33;9.30;;;;;;;-3.78;94.82;100296.00;5051698;28;20033;-65
2022/12/14 02:51:14;;;;;;;23.13;10.20;;;;;;;-3.79;94.84;100307.38;5051598;28;20186;-65
2022/12/14 02:53:52;;;;;;;20.98;9.80;;;;;;;-3.79;94.93;100310.00;5051425;28;20036;-65
2022/12/14 02:56:25;;;;;;;18.45;8.32;;;;;;;-3.81;95.09;100306.66;5051557;28;20498;-65
2022/12/14 02:58:52;;;;;;;19.52;10.30;;;;;;;-3.81;94.71;100307.50;5051488;28;20082;-65
2022/12/14 03:01:22;;;;;;;22.38;9.75;;;;;;;-3.80;95.18;100309.16;5051388;28;20025;-65
2022/12/14 03:03:48;;;;;;;19.85;8.75;;;;;;;-3.81;94.75;100314.47;5050999;28;20033;-65
2022/12/14 03:06:24;;;;;;;18.05;9.10;;;;;;;-3.81;95.67;100312.69;5050998;28;20086;-65
2022/12/14 03:08:53;;;;;;;19.50;8.38;;;;;;;-3.81;94.77;100311.88;5069646;28;20104;-65
2022/12/14 03:11:23;;;;;;;21.67;9.15;;;;;;;-3.79;94.36;100310.81;5069463;28;20478;-65
2022/12/14 03:13:56;;;;;;;22.92;9.50;;;;;;;-3.77;95.12;100303.72;5069646;28;20134;-65
2022/12/14 03:16:30;;;;;;;19.48;8.93;;;;;;;-3.77;94.53;100293.28;5070277;28;20032;-65
2022/12/14 03:19:01;;;;;;;22.50;9.48;;;;;;;-3.75;94.88;100300.97;5069992;28;20024;-65
2022/12/14 03:21:32;;;;;;;17.05;8.32;;;;;;;-3.75;94.86;100301.81;5070117;28;20036;-66
2022/12/14 03:24:01;;;;;;;18.65;8.48;;;;;;;-3.78;94.30;100291.63;5069848;28;20036;-65
2022/12/14 03:26:54;;;;;;;21.98;11.30;;;;;;;-3.71;94.40;100305.03;5069623;28;20057;-65
2022/12/14 03:29:28;;;;;;;24.08;10.32;;;;;;;-3.72;94.99;100295.56;5069878;28;20075;-65
2022/12/14 03:31:57;;;;;;;20.50;9.68;;;;;;;-3.71;95.40;100292.00;5069824;28;20526;-65
2022/12/14 03:34:35;;;;;;;19.85;9.45;;;;;;;-3.70;94.56;100290.22;5069871;28;20024;-65
2022/12/14 03:37:11;;;;;;;22.55;10.48;;;;;;;-3.76;94.19;100274.09;5069841;28;20020;-65
2022/12/14 03:39:41;;;;;;;23.67;10.40;;;;;;;-3.71;94.38;100276.34;5070113;28;20639;-65
2022/12/14 03:42:29;;;;;;;20.13;9.50;;;;;;;-3.72;95.24;100274.72;5069896;28;20441;-65
2022/12/14 03:45:10;;;;;;;18.50;9.70;;;;;;;-3.75;94.99;100269.72;5069216;28;20467;-65
2022/12/14 03:47:41;;;;;;;18.90;8.73;;;;;;;-3.75;95.11;100267.09;5051183;28;20085;-65
2022/12/14 03:50:14;;;;;;;21.52;9.88;;;;;;;-3.76;94.76;100268.06;5069203;28;20055;-65
2022/12/14 03:53:17;;;;;;;18.90;9.20;;;;;;;-3.76;95.22;100257.66;5068877;28;20036;-65
2022/12/14 03:56:05;;;;;;;20.25;8.50;;;;;;;-3.77;95.48;100256.00;5069058;28;20032;-65
2022/12/14 03:58:36;;;;;;;20.92;9.50;;;;;;;-3.78;95.52;100243.91;5056474;28;20468;-65
2022/12/14 04:01:04;;;;;;;18.00;9.23;;;;;;;-3.77;95.75;100245.56;5050148;28;20029;-65
2022/12/14 04:03:50;;;;;;;19.45;10.40;;;;;;;-3.77;95.37;100246.41;5049810;28;20024;-65
2022/12/14 04:06:29;;;;;;;18.65;8.90;;;;;;;-3.76;95.62;100239.41;5049621;28;20036;-65
2022/12/14 04:09:06;;;;;;;19.20;9.13;;;;;;;-3.74;95.40;100245.34;5049590;28;20031;-65
2022/12/14 04:20:29;;;;;;;21.02;9.43;;;;;;;-3.72;95.70;100222.59;5050182;28;20114;-65
2022/12/14 04:23:02;;;;;;;18.85;8.57;;;;;;;-3.80;95.37;100207.56;5049874;28;20111;-65
2022/12/14 04:31:13;;;;;;;22.90;8.10;;;;;;;-3.70;94.94;100212.84;5049534;28;20043;-65
2022/12/14 04:33:47;;;;;;;20.98;8.45;;;;;;;-3.68;95.29;100213.56;5049547;28;20021;-65
2022/12/14 04:36:18;;;;;;;17.40;9.25;;;;;;;-3.69;95.22;100211.06;5050853;28;20024;-65
2022/12/14 04:38:47;;;;;;;19.48;9.40;;;;;;;-3.76;94.56;100190.72;5053773;28;20111;-65
2022/12/14 04:41:18;;;;;;;20.67;8.23;;;;;;;-3.68;95.46;100204.94;5053667;28;20399;-65
2022/12/14 04:43:45;;;;;;;20.60;8.30;;;;;;;-3.69;94.92;100198.91;5053547;28;20024;-65
2022/12/14 04:46:14;;;;;;;19.85;9.30;;;;;;;-3.66;94.78;100205.66;5053272;28;20040;-65
2022/12/14 04:49:06;;;;;;;23.85;10.23;;;;;;;-3.68;95.11;100192.72;5052893;28;20031;-65
2022/12/14 04:52:04;;;;;;;24.17;9.00;;;;;;;-3.67;95.02;100194.38;5052890;28;20025;-65
2022/12/14 04:54:40;;;;;;;16.05;7.72;;;;;;;-3.67;94.94;100201.38;5052542;28;20025;-65
2022/12/14 04:57:05;;;;;;;41.30;10.35;;;;;;;-3.67;94.54;100202.19;5053331;28;20229;-65
2022/12/14 04:59:31;;;;;;;21.38;9.43;;;;;;;-3.65;94.35;100202.91;5045199;28;20469;-65
2022/12/14 05:02:27;;;;;;;17.77;8.10;;;;;;;-3.65;94.93;100196.88;5052924;28;20049;-65
2022/12/14 05:05:24;;;;;;;20.30;9.30;;;;;;;-3.66;94.97;100192.63;5052617;28;20029;-66
2022/12/14 05:08:10;;;;;;;22.33;10.77;;;;;;;-3.73;94.87;100175.81;5052586;28;20033;-65
2022/12/14 05:10:42;;;;;;;21.23;10.25;;;;;;;-3.71;94.46;100177.34;5052889;28;20053;-65
2022/12/14 05:13:48;;;;;;;18.45;8.40;;;;;;;-3.70;95.25;100184.19;5052961;28;20021;-65
2022/12/14 05:16:22;;;;;;;18.55;9.35;;;;;;;-3.71;95.30;100171.31;4952033;29;20035;-65
2022/12/14 05:18:48;;;;;;;17.67;8.57;;;;;;;-3.70;95.01;100170.34;4952534;29;20050;-65
2022/12/14 05:21:45;;;;;;;16.98;8.07;;;;;;;-3.71;95.01;100176.53;5005640;28;20040;-65
2022/12/14 05:24:01;;;;;;;21.73;9.20;;;;;;;-3.71;95.24;100173.91;5052469;28;20044;-65
2022/12/14 05:26:27;;;;;;;19.00;8.65;;;;;;;-3.71;94.65;100174.75;5052460;28;20079;-65
2022/12/14 05:28:53;;;;;;;23.10;8.07;;;;;;;-3.77;94.64;100159.59;5052811;28;20066;-65
2022/12/14 05:31:18;;;;;;;24.45;9.10;;;;;;;-3.69;94.49;100167.63;5052796;28;20035;-65
2022/12/14 05:33:43;;;;;;;21.33;8.18;;;;;;;-3.69;94.83;100166.78;5052636;28;20116;-66
2022/12/14 05:36:09;;;;;;;20.23;8.48;;;;;;;-3.68;95.23;100171.88;5052573;28;20048;-65
2022/12/14 05:38:35;;;;;;;18.85;8.35;;;;;;;-3.67;94.89;100172.72;5052575;28;20029;-66
2022/12/14 05:41:00;;;;;;;23.40;8.60;;;;;;;-3.66;94.94;100166.56;5052430;28;20119;-65
2022/12/14 05:43:26;;;;;;;19.52;7.43;;;;;;;-3.67;95.13;100167.50;5044906;28;20376;-65
2022/12/14 05:46:01;;;;;;;17.60;8.10;;;;;;;-3.68;95.44;100166.66;5051859;28;20036;-65
2022/12/14 05:48:26;;;;;;;21.58;8.98;;;;;;;-3.67;95.29;100167.50;5051493;28;20032;-65
2022/12/14 05:50:51;;;;;;;21.88;8.80;;;;;;;-3.67;94.85;100162.28;5051869;28;20032;-65
2022/12/14 05:53:17;;;;;;;20.50;9.18;;;;;;;-3.68;94.95;100163.25;5051678;28;20029;-66
2022/12/14 05:55:50;;;;;;;16.42;8.40;;;;;;;-3.69;95.42;100162.44;5050771;28;20494;-65
2022/12/14 05:58:16;;;;;;;17.73;9.32;;;;;;;-3.68;95.24;100164.06;5052115;28;20544;-65
2022/12/14 06:00:42;;;;;;;18.23;8.60;;;;;;;-3.69;94.63;100153.75;5051702;28;20039;-65
2022/12/14 06:03:08;;;;;;;20.05;8.52;;;;;;;-3.68;94.32;100166.66;5052100;28;20912;-65
2022/12/14 06:05:33;;;;;;;16.65;7.95;;;;;;;-3.68;94.45;100158.03;5017556;28;20033;-65
2022/12/14 06:07:58;;;;;;;17.80;8.05;;;;;;;-3.74;94.39;100146.31;5051407;28;20108;-65
2022/12/14 06:10:24;;;;;;;20.10;8.05;;;;;;;-3.71;95.38;100158.28;5051450;28;20021;-65
2022/12/14 06:12:49;;;;;;;21.63;8.48;;;;;;;-3.72;95.57;100148.78;5051568;28;20029;-66
2022/12/14 06:15:15;;;;;;;19.52;7.30;;;;;;;-3.75;95.43;100147.25;5050073;28;20027;-65
2022/12/14 06:17:45;;;;;;;22.33;8.68;;;;;;;-3.83;95.02;100140.06;5051263;28;20033;-65
2022/12/14 06:20:11;;;;;;;16.55;7.43;;;;;;;-3.79;95.46;100148.47;5051264;28;20033;-66
2022/12/14 06:22:36;;;;;;;17.23;7.53;;;;;;;-3.80;95.44;100150.25;5051225;28;20111;-65
2022/12/14 06:25:02;;;;;;;16.17;8.43;;;;;;;-3.84;95.97;100146.22;5051041;28;20033;-66
2022/12/14 06:27:28;;;;;;;18.08;8.25;;;;;;;-3.81;96.00;100155.56;5060311;28;20459;-66
2022/12/14 06:29:53;;;;;;;19.45;8.52;;;;;;;-3.82;96.33;100144.31;5070934;28;20033;-66
2022/12/14 06:32:18;;;;;;;15.73;7.82;;;;;;;-3.87;95.94;100138.66;5071098;28;20486;-66
2022/12/14 06:34:44;;;;;;;23.27;10.27;;;;;;;-3.81;95.77;100147.75;5071232;28;20028;-65
2022/12/14 06:37:10;;;;;;;15.07;7.90;;;;;;;-3.82;94.88;100146.13;5071030;28;20036;-66
2022/12/14 06:39:35;;;;;;;21.17;9.55;;;;;;;-3.82;96.02;100149.53;5070921;28;20080;-66
2022/12/14 06:42:00;;;;;;;15.80;8.00;;;;;;;-3.82;95.85;100151.31;5058793;28;20036;-69
2022/12/14 06:44:26;;;;;;;19.25;9.02;;;;;;;-3.82;96.33;100152.16;5051681;28;20052;-69
2022/12/14 06:46:51;;;;;;;18.30;8.20;;;;;;;-3.83;95.49;100158.28;5054043;28;20021;-70
2022/12/14 06:49:16;;;;;;;18.90;7.95;;;;;;;-3.83;95.35;100157.47;5062195;28;20494;-69
2022/12/14 06:51:42;;;;;;;19.13;8.07;;;;;;;-3.86;96.21;100160.31;5060491;28;20505;-69
2022/12/14 06:54:10;;;;;;;22.88;8.73;;;;;;;-3.83;96.05;100154.84;5053426;28;20040;-70
2022/12/14 06:56:36;;;;;;;18.60;9.40;;;;;;;-3.84;96.66;100153.22;5051816;28;20103;-65
2022/12/14 06:59:01;;;;;;;20.20;9.63;;;;;;;-3.85;96.80;100156.75;5069664;28;20029;-66
2022/12/14 07:01:27;;;;;;;17.70;7.50;;;;;;;-3.87;95.95;100161.28;5070475;28;20170;-66
2022/12/14 07:03:55;;;;;;;19.45;8.70;;;;;;;-3.91;96.38;100160.66;5067151;28;20052;-66
2022/12/14 07:06:22;;;;;;;19.08;7.55;;;;;;;-3.93;96.41;100154.78;5050706;28;20364;-66
2022/12/14 07:08:48;;;;;;;17.73;7.95;;;;;;;-3.91;96.23;100163.28;5050921;28;20029;-65
2022/12/14 07:11:15;;;;;;;15.73;8.55;;;;;;;-3.90;96.39;100171.91;5050809;28;20087;-65
2022/12/14 07:13:41;;;;;;;16.10;7.38;;;;;;;-3.89;95.73;100176.19;5033045;28;20100;-65
2022/12/14 07:16:13;;;;;;;17.17;8.40;;;;;;;-3.93;95.52;100169.56;5050639;28;20021;-65
2022/12/14 07:18:39;;;;;;;20.85;8.13;;;;;;;-3.89;95.63;100182.22;5050641;28;20450;-65
2022/12/14 07:21:08;;;;;;;17.80;7.60;;;;;;;-3.93;95.79;100167.81;5050442;28;20061;-66
2022/12/14 07:23:38;;;;;;;20.15;8.10;;;;;;;-3.89;95.39;100174.41;5050637;28;20039;-65
2022/12/14 07:26:06;;;;;;;15.98;6.68;;;;;;;-3.90;96.38;100170.16;5050138;28;20048;-66
2022/12/14 07:28:32;;;;;;;22.02;7.53;;;;;;;-3.93;95.50;100173.00;5050393;28;20036;-66
2022/12/14 07:30:59;;;;;;;18.40;9.13;;;;;;;-3.97;95.71;100166.38;5050473;28;20035;-66
2022/12/14 07:33:25;;;;;;;21.00;9.45;;;;;;;-4.04;96.60;100168.59;5050263;28;20059;-65
2022/12/14 07:35:51;;;;;;;23.30;9.52;;;;;;;-4.07;95.94;100166.25;5050108;28;20079;-67
2022/12/14 07:38:17;;;;;;;18.27;9.05;;;;;;;-4.11;96.49;100175.25;5050305;28;20430;-66
2022/12/14 07:40:43;;;;;;;26.80;9.80;;;;;;;-4.15;97.02;100171.22;5050070;28;20025;-65
2022/12/14 07:43:09;;;;;;;18.20;9.05;;;;;;;-4.23;96.56;100165.78;5050052;28;20036;-65
2022/12/14 07:45:34;;;;;;;18.20;8.57;;;;;;;-4.28;97.23;100163.53;5032158;28;20033;-65
2022/12/14 07:48:01;;;;;;;19.15;9.07;;;;;;;-4.25;97.30;100172.88;5032208;28;20052;-65
2022/12/14 07:50:27;;;;;;;17.83;8.02;;;;;;;-4.28;97.63;100170.53;5050029;28;20078;-65
2022/12/14 07:52:52;;;;;;;26.17;13.82;;;;;;;-4.43;97.16;100151.69;5048896;28;20518;-65
2022/12/14 07:55:17;;;;;;;17.65;9.35;;;;;;;-4.31;97.79;100182.00;5048682;28;20040;-65
2022/12/14 07:57:43;;;;;;;18.70;9.60;;;;;;;-4.33;97.48;100177.84;5048472;28;20486;-65
2022/12/14 08:00:09;;;;;;;20.30;10.05;;;;;;;-4.38;97.81;100172.16;5048749;28;20098;-65
2022/12/14 08:02:34;;;;;;;18.17;8.70;;;;;;;-4.37;97.69;100184.25;5048936;28;20575;-65
2022/12/14 08:04:59;;;;;;;20.20;10.07;;;;;;;-4.37;97.73;100200.69;5049423;28;20075;-65
2022/12/14 08:07:28;;;;;;;19.52;9.50;;;;;;;-4.38;97.04;100187.78;5049694;28;20057;-65
2022/12/14 08:09:54;;;;;;;20.10;9.50;;;;;;;-4.38;96.99;100193.00;5048835;28;20119;-65
2022/12/14 08:12:19;;;;;;;23.13;9.85;;;;;;;-4.44;97.84;100183.88;5048716;28;20124;-65
2022/12/14 08:14:44;;;;;;;20.05;9.05;;;;;;;-4.43;97.74;100191.59;5030844;28;20037;-65
2022/12/14 08:17:10;;;;;;;19.60;9.80;;;;;;;-4.45;97.89;100197.84;5048750;28;20078;-66
2022/12/14 08:19:35;;;;;;;18.05;8.73;;;;;;;-4.48;97.55;100192.84;5049305;28;20041;-65
2022/12/14 08:22:00;;;;;;;17.90;9.15;;;;;;;-4.50;97.71;100195.59;5031577;28;20082;-65
2022/12/14 08:24:26;;;;;;;21.90;10.23;;;;;;;-4.53;97.20;100201.03;5049645;28;20033;-65
2022/12/14 08:26:51;;;;;;;18.65;10.07;;;;;;;-4.55;97.11;100196.88;5051878;28;20143;-64
2022/12/14 08:29:17;;;;;;;19.02;8.85;;;;;;;-4.60;97.64;100191.19;5068914;28;20476;-65
2022/12/14 08:31:42;;;;;;;18.10;8.55;;;;;;;-4.57;97.90;100206.56;5068887;28;20098;-66
2022/12/14 08:34:08;;;;;;;20.05;9.65;;;;;;;-4.61;97.96;100198.19;5050858;28;20032;-66
2022/12/14 08:36:34;;;;;;;16.45;7.68;;;;;;;-4.60;98.28;100199.81;5068945;28;20029;-65
2022/12/14 08:39:02;;;;;;;20.00;9.68;;;;;;;-4.67;97.20;100199.44;5068780;28;20047;-65
2022/12/14 08:41:28;;;;;;;17.48;8.50;;;;;;;-4.64;97.34;100203.59;5068627;28;20043;-65
2022/12/14 08:43:56;;;;;;;14.85;6.88;;;;;;;-4.64;97.82;100207.03;5068868;28;20033;-65
2022/12/14 08:46:23;;;;;;;21.88;8.40;;;;;;;-4.63;97.99;100205.28;5068677;28;20040;-65
2022/12/14 08:48:50;;;;;;;16.95;8.85;;;;;;;-4.64;97.06;100198.38;5068464;28;20042;-65
2022/12/14 08:51:16;;;;;;;17.35;8.43;;;;;;;-4.66;97.79;100193.31;5068255;28;20035;-65
2022/12/14 08:53:42;;;;;;;16.77;7.43;;;;;;;-4.64;96.69;100195.78;5060077;28;20037;-69
2022/12/14 08:56:10;;;;;;;20.10;8.32;;;;;;;-4.66;97.60;100197.69;5067231;28;20100;-71
2022/12/14 08:58:36;;;;;;;17.42;7.50;;;;;;;-4.80;97.50;100177.91;5057243;28;20044;-74
2022/12/14 09:01:12;;;;;;;15.80;6.78;;;;;;;-4.66;97.09;100195.09;5067749;28;20028;-73
2022/12/14 09:03:37;;;;;;;17.85;6.78;;;;;;;-4.68;97.33;100197.81;5054448;28;20029;-73
2022/12/14 09:06:05;;;;;;;18.70;8.15;;;;;;;-4.72;96.58;100201.56;5049105;28;20969;-73
2022/12/14 09:08:31;;;;;;;17.58;7.30;;;;;;;-4.67;96.94;100209.84;5053854;28;20037;-70
2022/12/14 09:10:57;;;;;;;15.95;7.50;;;;;;;-4.65;96.92;100205.38;5065899;28;20528;-71
2022/12/14 09:13:22;;;;;;;20.75;10.18;;;;;;;-4.52;96.40;100209.66;5068254;28;20036;-71
2022/12/14 09:16:06;;;;;;;18.50;8.57;;;;;;;-4.49;96.92;100202.44;5054829;28;20087;-71
2022/12/14 09:18:33;;;;;;;17.08;6.93;;;;;;;-4.53;96.03;100187.16;5058943;28;20485;-76
2022/12/14 09:20:58;;;;;;;20.08;9.18;;;;;;;-4.41;96.17;100215.69;5058765;28;20036;-69
2022/12/14 09:23:26;;;;;;;19.58;8.70;;;;;;;-4.37;95.36;100218.91;5052228;28;20025;-71
2022/12/14 09:26:03;;;;;;;17.40;6.75;;;;;;;-4.41;96.40;100207.88;5056038;28;20029;-70
2022/12/14 09:28:30;;;;;;;15.32;7.97;;;;;;;-4.30;95.01;100222.69;5052682;28;20037;-69
2022/12/14 09:30:57;;;;;;;21.25;8.60;;;;;;;-4.21;95.35;100221.19;5052717;28;20432;-71
2022/12/14 09:33:25;;;;;;;20.92;8.65;;;;;;;-4.19;95.56;100222.72;5046915;28;20021;-73
2022/12/14 09:35:50;;;;;;;15.70;9.18;;;;;;;-4.16;94.96;100229.47;5045345;28;20589;-74
2022/12/14 09:38:15;;;;;;;16.40;6.10;;;;;;;-4.13;94.95;100224.03;5050858;28;20087;-75
2022/12/14 09:40:47;;;;;;;18.25;7.95;;;;;;;-4.01;95.18;100217.88;5052206;28;20124;-74
2022/12/14 09:43:18;;;;;;;;;;;;;;;-3.90;95.70;100217.03;5044587;28;20387;-75
2022/12/14 09:45:52;;;;;;;20.50;10.13;;;;;;;-3.83;95.91;100214.78;5038014;28;19909;-75
2022/12/14 09:48:21;;;;;;;22.88;8.13;;;;;;;-3.73;95.29;100223.53;5052143;28;20025;-74
2022/12/14 09:50:49;;;;;;;19.63;8.40;;;;;;;-3.68;94.90;100216.19;5051705;28;20032;-75
2022/12/14 09:53:17;;;;;;;13.77;6.10;;;;;;;-3.61;95.05;100219.97;5052033;28;20487;-74
2022/12/14 09:55:46;;;;;;;15.18;7.53;;;;;;;-3.61;93.94;100219.16;5051607;28;20029;-75
2022/12/14 09:58:28;;;;;;;18.85;8.45;;;;;;;-3.54;94.55;100208.13;5050323;28;20025;-75
2022/12/14 10:01:04;;;;;;;19.08;7.18;;;;;;;-3.45;94.75;100219.59;5051923;28;20475;-68
2022/12/14 10:03:58;;;;;;;14.95;7.53;;;;;;;-3.35;94.29;100211.88;5051170;28;20476;-66
2022/12/14 10:06:30;;;;;;;14.65;6.78;;;;;;;-3.28;93.61;100201.75;5050291;28;20072;-67
2022/12/14 10:09:02;;;;;;;;;;;;;;;-3.21;93.78;100203.75;5042208;28;20037;-65
2022/12/14 10:11:52;;;;;;;16.48;7.30;;;;;;;-3.12;92.54;100205.63;5037670;28;19951;-65
2022/12/14 10:14:41;;;;;;;17.63;7.97;;;;;;;-3.06;90.97;100198.25;5041300;28;20129;-66
2022/12/14 10:17:41;;;;;;;16.35;8.30;;;;;;;-3.03;92.13;100203.22;5038562;28;20028;-65
2022/12/14 10:20:20;;;;;;;17.70;10.68;;;;;;;-2.99;92.06;100202.81;5043011;28;20582;-65
2022/12/14 10:22:51;;;;;;;19.10;9.50;;;;;;;-2.98;91.96;100203.66;5041760;28;20091;-65
2022/12/14 10:25:23;;;;;;;17.48;9.23;;;;;;;-2.93;92.38;100212.78;5045150;28;20039;-66
2022/12/14 10:28:18;;;;;;;19.10;7.50;;;;;;;-2.98;92.98;100193.22;5052519;28;20541;-65
2022/12/14 10:30:45;;;;;;;19.38;7.75;;;;;;;-2.84;92.05;100207.75;5048231;28;20061;-65
2022/12/14 10:33:18;;;;;;;21.60;9.00;;;;;;;-2.78;91.96;100204.63;5051793;28;20086;-66
2022/12/14 10:35:55;;;;;;;29.25;11.02;;;;;;;-2.69;91.92;100203.88;5051628;28;20033;-73
2022/12/14 10:38:28;;;;;;;21.98;8.70;;;;;;;-2.62;90.17;100210.25;5051427;28;20021;-72
2022/12/14 10:41:01;;;;;;;18.00;9.65;;;;;;;-2.51;89.90;100214.56;5049321;28;20067;-75
2022/12/14 10:43:35;;;;;;;15.82;8.15;;;;;;;-2.47;90.04;100219.38;5047625;28;20048;-70
2022/12/14 10:46:13;;;;;;;18.67;8.98;;;;;;;-2.41;90.09;100215.47;5058056;28;20162;-69
2022/12/14 10:48:50;;;;;;;19.05;8.73;;;;;;;-2.34;88.70;100216.56;5065199;28;20059;-71
2022/12/14 10:51:27;;;;;;;17.38;8.85;;;;;;;-2.31;88.83;100211.09;5054742;28;20064;-71
2022/12/14 10:54:26;;;;;;;15.75;7.65;;;;;;;-2.23;88.99;100215.66;5054332;28;20483;-71
2022/12/14 10:56:51;;;;;;;19.52;7.90;;;;;;;-2.20;89.83;100210.22;5030723;28;20556;-70
2022/12/14 10:59:17;;;;;;;17.02;8.00;;;;;;;-2.16;88.50;100205.53;5066586;28;20036;-71
2022/12/14 11:01:44;;;;;;;16.45;9.15;;;;;;;-2.12;88.36;100209.53;5058721;28;20028;-71
2022/12/14 11:04:35;;;;;;;16.50;7.15;;;;;;;-2.10;88.09;100207.63;5051546;28;20020;-70
2022/12/14 11:07:06;;;;;;;15.30;7.72;;;;;;;-2.08;87.92;100205.72;5063194;28;20031;-71
2022/12/14 11:09:32;;;;;;;14.77;7.82;;;;;;;-2.13;86.68;100190.41;5045950;28;20382;-70
2022/12/14 11:12:06;;;;;;;19.30;7.70;;;;;;;-1.99;86.84;100203.16;5045177;28;20382;-70
2022/12/14 11:14:34;;;;;;;14.25;7.07;;;;;;;-1.90;87.26;100213.75;5051792;28;20100;-71
2022/12/14 11:16:59;;;;;;;20.27;7.00;;;;;;;-1.87;85.33;100208.28;5055135;28;20440;-70
2022/12/14 11:19:26;;;;;;;23.35;9.15;;;;;;;-1.83;85.33;100209.66;5058691;28;20052;-71
2022/12/14 11:22:08;;;;;;;18.58;7.60;;;;;;;-1.67;85.64;100210.00;5053909;28;20031;-71
2022/12/14 11:24:43;;;;;;;19.52;8.10;;;;;;;-1.58;83.00;100213.56;5055907;28;20116;-70
2022/12/14 11:27:10;;;;;;;12.35;7.38;;;;;;;-1.53;82.92;100205.34;5058704;28;20063;-71
2022/12/14 11:29:38;;;;;;;16.13;6.78;;;;;;;-1.39;83.89;100213.63;5064391;28;20514;-71
2022/12/14 11:32:05;;;;;;;15.13;7.22;;;;;;;-1.44;82.54;100207.13;5065036;28;20028;-71
2022/12/14 11:34:38;;;;;;;15.95;7.60;;;;;;;-1.36;82.71;100213.34;5061053;28;20183;-71
2022/12/14 11:37:25;;;;;;;17.38;8.15;;;;;;;-1.26;82.07;100220.38;5067681;28;20023;-71
2022/12/14 11:39:56;;;;;;;17.75;7.57;;;;;;;-1.22;81.45;100212.13;5056603;28;20048;-70
2022/12/14 11:42:22;;;;;;;20.58;7.43;;;;;;;-1.20;82.30;100212.81;5063159;28;20973;-70
2022/12/14 11:44:49;;;;;;;16.48;6.57;;;;;;;-1.23;82.63;100196.56;5060630;28;20032;-71
2022/12/14 11:47:17;;;;;;;14.65;6.90;;;;;;;-1.19;80.88;100196.16;5047238;28;20479;-72